createdAt,value
2018-03-18T00:00:40.693Z,988.57
2018-03-18T00:01:40.673Z,988.49
2018-03-18T00:03:33.473Z,988.51
2018-03-18T00:04:33.448Z,988.58
2018-03-18T00:06:26.282Z,988.55
2018-03-18T00:07:26.240Z,988.54
2018-03-18T00:09:19.050Z,988.59
2018-03-18T00:10:19.032Z,988.58
2018-03-18T00:12:11.861Z,988.59
2018-03-18T00:13:11.822Z,988.63
2018-03-18T00:15:04.680Z,988.58
2018-03-18T00:16:04.617Z,988.62
2018-03-18T00:17:57.452Z,988.62
2018-03-18T00:18:57.414Z,988.63
2018-03-18T00:20:50.234Z,988.64
2018-03-18T00:21:50.205Z,988.66
2018-03-18T00:23:43.065Z,988.64
2018-03-18T00:24:43.008Z,988.64
2018-03-18T00:26:35.822Z,988.62
2018-03-18T00:27:35.794Z,988.65
2018-03-18T00:29:28.625Z,988.65
2018-03-18T00:30:28.584Z,988.65
2018-03-18T00:32:21.459Z,988.63
2018-03-18T00:33:21.373Z,988.65
2018-03-18T00:35:14.208Z,988.66
2018-03-18T00:36:14.174Z,988.63
2018-03-18T00:38:07.011Z,988.68
2018-03-18T00:39:06.986Z,988.60
2018-03-18T00:40:59.817Z,988.66
2018-03-18T00:41:59.775Z,988.61
2018-03-18T00:43:52.595Z,988.63
2018-03-18T00:44:52.571Z,988.64
2018-03-18T00:46:45.405Z,988.69
2018-03-18T00:47:45.362Z,988.64
2018-03-18T00:49:38.179Z,988.64
2018-03-18T00:50:38.151Z,988.60
2018-03-18T00:52:30.986Z,988.61
2018-03-18T00:53:30.944Z,988.57
2018-03-18T00:55:23.760Z,988.56
2018-03-18T00:56:23.731Z,988.60
2018-03-18T00:58:16.572Z,988.56
2018-03-18T00:59:16.530Z,988.55
2018-03-18T01:01:09.348Z,988.53
2018-03-18T01:02:09.322Z,988.55
2018-03-18T01:04:02.158Z,988.52
2018-03-18T01:05:02.113Z,988.52
2018-03-18T01:06:54.928Z,988.53
2018-03-18T01:07:54.904Z,988.55
2018-03-18T01:09:47.749Z,988.52
2018-03-18T01:10:47.711Z,988.50
2018-03-18T01:12:40.545Z,988.49
2018-03-18T01:13:40.519Z,988.51
2018-03-18T01:15:33.375Z,988.49
2018-03-18T01:16:33.333Z,988.50
2018-03-18T01:18:26.153Z,988.50
2018-03-18T01:19:26.131Z,988.46
2018-03-18T01:21:18.997Z,988.43
2018-03-18T01:22:18.917Z,988.42
2018-03-18T01:24:11.739Z,988.39
2018-03-18T01:25:11.709Z,988.39
2018-03-18T01:27:04.548Z,988.38
2018-03-18T01:28:04.500Z,988.39
2018-03-18T01:29:57.329Z,988.38
2018-03-18T01:30:57.305Z,988.35
2018-03-18T01:32:50.134Z,988.33
2018-03-18T01:33:50.094Z,988.31
2018-03-18T01:35:42.916Z,988.33
2018-03-18T01:36:42.886Z,988.34
2018-03-18T01:38:35.719Z,988.33
2018-03-18T01:39:35.675Z,988.31
2018-03-18T01:41:28.492Z,988.32
2018-03-18T01:42:28.465Z,988.30
2018-03-18T01:44:21.301Z,988.29
2018-03-18T01:45:21.259Z,988.25
2018-03-18T01:47:14.077Z,988.26
2018-03-18T01:48:14.047Z,988.28
2018-03-18T01:50:06.878Z,988.20
2018-03-18T01:51:06.836Z,988.22
2018-03-18T01:52:59.655Z,988.18
2018-03-18T01:53:59.626Z,988.19
2018-03-18T01:55:52.459Z,988.21
2018-03-18T01:56:52.419Z,988.21
2018-03-18T01:58:45.234Z,988.12
2018-03-18T01:59:45.203Z,988.16
2018-03-18T02:01:38.040Z,988.13
2018-03-18T02:02:37.995Z,988.13
2018-03-18T02:04:30.819Z,988.11
2018-03-18T02:05:30.787Z,988.11
2018-03-18T02:07:23.619Z,988.12
2018-03-18T02:08:23.576Z,988.11
2018-03-18T02:10:16.395Z,988.13
2018-03-18T02:11:16.367Z,988.08
2018-03-18T02:13:09.204Z,988.14
2018-03-18T02:14:09.159Z,988.11
2018-03-18T02:16:01.983Z,988.14
2018-03-18T02:17:01.951Z,988.06
2018-03-18T02:18:54.790Z,988.09
2018-03-18T02:19:54.743Z,988.12
2018-03-18T02:21:47.565Z,988.05
2018-03-18T02:22:47.539Z,988.05
2018-03-18T02:24:40.475Z,988.07
2018-03-18T02:25:40.332Z,988.04
2018-03-18T02:27:33.149Z,987.99
2018-03-18T02:28:33.123Z,987.99
2018-03-18T02:30:25.961Z,988.06
2018-03-18T02:31:25.911Z,987.97
2018-03-18T02:33:18.728Z,987.99
2018-03-18T02:34:18.700Z,988.04
2018-03-18T02:36:11.535Z,987.98
2018-03-18T02:37:11.495Z,988.01
2018-03-18T02:39:04.321Z,988.02
2018-03-18T02:40:04.292Z,987.96
2018-03-18T02:41:57.119Z,988.00
2018-03-18T02:42:57.078Z,987.99
2018-03-18T02:44:49.891Z,987.99
2018-03-18T02:45:49.865Z,988.01
2018-03-18T02:47:42.697Z,987.97
2018-03-18T02:48:42.653Z,987.95
2018-03-18T02:50:35.469Z,988.03
2018-03-18T02:51:35.443Z,987.98
2018-03-18T02:53:28.273Z,988.01
2018-03-18T02:54:28.230Z,987.91
2018-03-18T02:56:21.049Z,987.95
2018-03-18T02:57:21.026Z,987.98
2018-03-18T02:59:13.870Z,987.91
2018-03-18T03:00:13.827Z,987.94
2018-03-18T03:02:06.638Z,987.95
2018-03-18T03:03:06.612Z,987.95
2018-03-18T03:04:59.452Z,987.92
2018-03-18T03:05:59.404Z,987.93
2018-03-18T03:07:52.223Z,987.94
2018-03-18T03:08:52.229Z,987.97
2018-03-18T03:10:45.026Z,987.91
2018-03-18T03:11:44.981Z,987.91
2018-03-18T03:13:37.800Z,987.89
2018-03-18T03:14:37.773Z,987.94
2018-03-18T03:16:30.615Z,987.95
2018-03-18T03:17:30.572Z,987.95
2018-03-18T03:19:23.881Z,987.91
2018-03-18T03:20:23.860Z,987.94
2018-03-18T03:22:16.700Z,987.95
2018-03-18T03:23:16.646Z,987.95
2018-03-18T03:25:09.470Z,987.96
2018-03-18T03:26:09.440Z,987.95
2018-03-18T03:28:02.271Z,987.95
2018-03-18T03:29:02.226Z,987.98
2018-03-18T03:30:55.044Z,988.05
2018-03-18T03:31:55.017Z,988.04
2018-03-18T03:33:47.855Z,988.02
2018-03-18T03:34:47.808Z,988.00
2018-03-18T03:36:40.629Z,988.03
2018-03-18T03:37:40.601Z,987.98
2018-03-18T03:39:33.434Z,988.09
2018-03-18T03:40:33.391Z,988.02
2018-03-18T03:42:26.207Z,987.99
2018-03-18T03:43:26.182Z,988.03
2018-03-18T03:45:19.071Z,988.00
2018-03-18T03:46:19.028Z,988.00
2018-03-18T03:48:11.842Z,988.00
2018-03-18T03:49:11.815Z,988.01
2018-03-18T03:51:04.748Z,987.95
2018-03-18T03:52:04.601Z,987.98
2018-03-18T03:53:57.425Z,987.99
2018-03-18T03:54:57.399Z,988.04
2018-03-18T03:56:50.233Z,988.01
2018-03-18T03:57:50.191Z,988.00
2018-03-18T03:59:43.002Z,987.96
2018-03-18T04:00:42.977Z,987.93
2018-03-18T04:02:35.811Z,987.91
2018-03-18T04:03:35.770Z,987.95
2018-03-18T04:05:28.581Z,987.94
2018-03-18T04:06:28.555Z,987.97
2018-03-18T04:08:21.390Z,987.97
2018-03-18T04:09:21.347Z,987.94
2018-03-18T04:11:14.162Z,987.98
2018-03-18T04:12:14.138Z,988.03
2018-03-18T04:14:06.973Z,987.99
2018-03-18T04:15:06.928Z,988.06
2018-03-18T04:16:59.743Z,987.97
2018-03-18T04:17:59.718Z,987.99
2018-03-18T04:19:52.548Z,988.00
2018-03-18T04:20:52.507Z,987.97
2018-03-18T04:22:45.323Z,988.03
2018-03-18T04:23:45.301Z,988.02
2018-03-18T04:25:38.127Z,988.03
2018-03-18T04:26:38.085Z,988.02
2018-03-18T04:28:30.904Z,988.01
2018-03-18T04:29:30.863Z,988.05
2018-03-18T04:31:23.707Z,988.01
2018-03-18T04:32:23.665Z,988.01
2018-03-18T04:34:16.485Z,988.04
2018-03-18T04:35:16.454Z,988.04
2018-03-18T04:37:09.293Z,988.07
2018-03-18T04:38:09.244Z,988.06
2018-03-18T04:40:02.148Z,988.04
2018-03-18T04:41:02.122Z,988.05
2018-03-18T04:42:54.951Z,988.06
2018-03-18T04:43:54.918Z,988.03
2018-03-18T04:45:47.739Z,988.12
2018-03-18T04:46:47.704Z,988.10
2018-03-18T04:48:40.538Z,988.08
2018-03-18T04:49:40.495Z,988.10
2018-03-18T04:51:33.311Z,988.10
2018-03-18T04:52:33.291Z,988.10
2018-03-18T04:54:26.134Z,988.13
2018-03-18T04:55:26.094Z,988.12
2018-03-18T04:57:18.912Z,988.12
2018-03-18T04:58:18.881Z,988.13
2018-03-18T05:00:11.713Z,988.14
2018-03-18T05:01:11.669Z,988.15
2018-03-18T05:03:04.485Z,988.13
2018-03-18T05:04:04.458Z,988.14
2018-03-18T05:05:57.312Z,988.20
2018-03-18T05:06:57.256Z,988.13
2018-03-18T05:08:50.074Z,988.14
2018-03-18T05:09:50.047Z,988.13
2018-03-18T05:11:42.878Z,988.16
2018-03-18T05:12:42.893Z,988.20
2018-03-18T05:14:35.651Z,988.22
2018-03-18T05:15:35.624Z,988.21
2018-03-18T05:17:28.458Z,988.21
2018-03-18T05:18:28.414Z,988.22
2018-03-18T05:20:21.234Z,988.20
2018-03-18T05:21:21.207Z,988.17
2018-03-18T05:23:14.038Z,988.20
2018-03-18T05:24:13.996Z,988.18
2018-03-18T05:26:06.812Z,988.22
2018-03-18T05:27:06.784Z,988.17
2018-03-18T05:28:59.618Z,988.21
2018-03-18T05:29:59.576Z,988.18
2018-03-18T05:31:52.395Z,988.26
2018-03-18T05:32:52.364Z,988.31
2018-03-18T05:34:45.195Z,988.30
2018-03-18T05:35:45.152Z,988.27
2018-03-18T05:37:37.981Z,988.31
2018-03-18T05:38:37.955Z,988.33
2018-03-18T05:40:30.789Z,988.33
2018-03-18T05:41:30.740Z,988.35
2018-03-18T05:43:23.564Z,988.41
2018-03-18T05:44:23.531Z,988.47
2018-03-18T05:46:16.361Z,988.49
2018-03-18T05:47:16.319Z,988.47
2018-03-18T05:49:09.629Z,988.46
2018-03-18T05:50:09.601Z,988.47
2018-03-18T05:52:02.442Z,988.52
2018-03-18T05:53:02.394Z,988.51
2018-03-18T05:54:55.210Z,988.48
2018-03-18T05:55:55.183Z,988.52
2018-03-18T05:57:48.017Z,988.51
2018-03-18T05:58:48.057Z,988.54
2018-03-18T06:00:40.793Z,988.54
2018-03-18T06:01:40.764Z,988.57
2018-03-18T06:03:33.594Z,988.55
2018-03-18T06:04:33.552Z,988.52
2018-03-18T06:06:26.371Z,988.50
2018-03-18T06:07:26.353Z,988.53
2018-03-18T06:09:19.176Z,988.52
2018-03-18T06:10:19.132Z,988.54
2018-03-18T06:12:11.953Z,988.56
2018-03-18T06:13:11.924Z,988.58
2018-03-18T06:15:04.788Z,988.56
2018-03-18T06:16:04.746Z,988.57
2018-03-18T06:17:57.562Z,988.62
2018-03-18T06:18:57.533Z,988.63
2018-03-18T06:20:50.368Z,988.60
2018-03-18T06:21:50.323Z,988.64
2018-03-18T06:23:43.159Z,988.64
2018-03-18T06:24:43.114Z,988.69
2018-03-18T06:26:36.037Z,988.72
2018-03-18T06:27:35.903Z,988.69
2018-03-18T06:29:28.718Z,988.70
2018-03-18T06:30:28.692Z,988.76
2018-03-18T06:32:21.521Z,988.78
2018-03-18T06:33:21.483Z,988.78
2018-03-18T06:35:14.307Z,988.76
2018-03-18T06:36:14.282Z,988.81
2018-03-18T06:38:07.114Z,988.79
2018-03-18T06:39:07.072Z,988.77
2018-03-18T06:40:59.887Z,988.77
2018-03-18T06:41:59.864Z,988.80
2018-03-18T06:43:52.698Z,988.83
2018-03-18T06:44:52.652Z,988.86
2018-03-18T06:46:45.477Z,988.80
2018-03-18T06:47:45.464Z,988.84
2018-03-18T06:49:38.283Z,988.88
2018-03-18T06:50:38.242Z,988.88
2018-03-18T06:52:31.055Z,988.88
2018-03-18T06:53:31.029Z,988.93
2018-03-18T06:55:23.860Z,988.93
2018-03-18T06:56:23.818Z,988.95
2018-03-18T06:58:16.634Z,988.98
2018-03-18T06:59:16.607Z,988.95
2018-03-18T07:01:09.443Z,988.92
2018-03-18T07:02:09.402Z,988.92
2018-03-18T07:04:02.233Z,988.92
2018-03-18T07:05:02.207Z,988.94
2018-03-18T07:06:55.040Z,989.00
2018-03-18T07:07:54.995Z,988.98
2018-03-18T07:09:47.811Z,989.04
2018-03-18T07:10:47.792Z,989.01
2018-03-18T07:12:40.628Z,989.05
2018-03-18T07:13:40.576Z,989.00
2018-03-18T07:15:33.892Z,989.10
2018-03-18T07:16:33.862Z,989.09
2018-03-18T07:18:26.693Z,989.12
2018-03-18T07:19:26.658Z,989.04
2018-03-18T07:21:19.519Z,989.13
2018-03-18T07:22:19.441Z,989.15
2018-03-18T07:24:12.280Z,989.13
2018-03-18T07:25:12.237Z,989.12
2018-03-18T07:27:05.060Z,989.13
2018-03-18T07:28:05.035Z,989.16
2018-03-18T07:29:57.864Z,989.11
2018-03-18T07:30:57.820Z,989.21
2018-03-18T07:32:50.637Z,989.23
2018-03-18T07:33:50.612Z,989.26
2018-03-18T07:35:43.441Z,989.25
2018-03-18T07:36:43.397Z,989.27
2018-03-18T07:38:36.276Z,989.26
2018-03-18T07:39:36.187Z,989.24
2018-03-18T07:41:29.020Z,989.23
2018-03-18T07:42:28.979Z,989.30
2018-03-18T07:44:21.798Z,989.28
2018-03-18T07:45:21.769Z,989.29
2018-03-18T07:47:14.642Z,989.30
2018-03-18T07:48:14.558Z,989.31
2018-03-18T07:50:07.373Z,989.36
2018-03-18T07:51:07.346Z,989.39
2018-03-18T07:53:00.182Z,989.40
2018-03-18T07:54:00.138Z,989.38
2018-03-18T07:55:52.961Z,989.46
2018-03-18T07:56:52.934Z,989.37
2018-03-18T07:58:45.773Z,989.46
2018-03-18T07:59:45.725Z,989.42
2018-03-18T08:01:38.539Z,989.48
2018-03-18T08:02:38.517Z,989.46
2018-03-18T08:04:31.347Z,989.45
2018-03-18T08:05:31.303Z,989.47
2018-03-18T08:07:24.122Z,989.50
2018-03-18T08:08:24.091Z,989.52
2018-03-18T08:10:16.920Z,989.54
2018-03-18T08:11:16.880Z,989.56
2018-03-18T08:13:09.701Z,989.57
2018-03-18T08:14:09.682Z,989.61
2018-03-18T08:16:02.513Z,989.60
2018-03-18T08:17:02.494Z,989.59
2018-03-18T08:18:55.317Z,989.53
2018-03-18T08:19:55.266Z,989.54
2018-03-18T08:21:48.093Z,989.58
2018-03-18T08:22:48.051Z,989.56
2018-03-18T08:24:40.869Z,989.59
2018-03-18T08:25:40.840Z,989.64
2018-03-18T08:27:33.680Z,989.57
2018-03-18T08:28:33.638Z,989.61
2018-03-18T08:30:26.459Z,989.67
2018-03-18T08:31:26.432Z,989.70
2018-03-18T08:33:19.264Z,989.59
2018-03-18T08:34:19.274Z,989.69
2018-03-18T08:36:12.053Z,989.59
2018-03-18T08:37:12.025Z,989.70
2018-03-18T08:39:04.855Z,989.67
2018-03-18T08:40:04.816Z,989.78
2018-03-18T08:41:57.630Z,989.67
2018-03-18T08:42:57.604Z,989.73
2018-03-18T08:44:50.437Z,989.70
2018-03-18T08:45:50.393Z,989.65
2018-03-18T08:47:43.210Z,989.76
2018-03-18T08:48:43.183Z,989.73
2018-03-18T08:50:36.016Z,989.72
2018-03-18T08:51:35.976Z,989.78
2018-03-18T08:53:28.796Z,989.75
2018-03-18T08:54:28.781Z,989.75
2018-03-18T08:56:21.709Z,989.76
2018-03-18T08:57:21.560Z,989.78
2018-03-18T08:59:14.378Z,989.81
2018-03-18T09:00:14.351Z,989.84
2018-03-18T09:02:07.220Z,989.80
2018-03-18T09:03:07.135Z,989.82
2018-03-18T09:04:59.959Z,989.83
2018-03-18T09:05:59.929Z,989.82
2018-03-18T09:07:52.768Z,989.80
2018-03-18T09:08:52.721Z,989.83
2018-03-18T09:10:46.175Z,989.79
2018-03-18T09:11:45.508Z,989.78
2018-03-18T09:13:38.353Z,989.78
2018-03-18T09:14:38.315Z,989.77
2018-03-18T09:16:31.128Z,989.73
2018-03-18T09:17:31.099Z,989.81
2018-03-18T09:19:23.936Z,989.80
2018-03-18T09:20:23.890Z,989.79
2018-03-18T09:22:16.815Z,989.77
2018-03-18T09:23:16.702Z,989.72
2018-03-18T09:25:09.520Z,989.80
2018-03-18T09:26:09.474Z,989.82
2018-03-18T09:28:02.295Z,989.79
2018-03-18T09:29:02.266Z,989.79
2018-03-18T09:30:55.127Z,989.82
2018-03-18T09:31:55.087Z,989.77
2018-03-18T09:33:47.894Z,989.81
2018-03-18T09:34:47.868Z,989.72
2018-03-18T09:36:40.702Z,989.75
2018-03-18T09:37:40.658Z,989.73
2018-03-18T09:39:33.505Z,989.78
2018-03-18T09:40:33.477Z,989.78
2018-03-18T09:42:26.321Z,989.81
2018-03-18T09:43:26.275Z,989.78
2018-03-18T09:45:19.095Z,989.85
2018-03-18T09:46:19.063Z,989.84
2018-03-18T09:48:12.439Z,989.84
2018-03-18T09:49:12.397Z,989.79
2018-03-18T09:51:05.214Z,989.80
2018-03-18T09:52:05.187Z,989.77
2018-03-18T09:53:58.029Z,989.86
2018-03-18T09:54:57.976Z,989.84
2018-03-18T09:56:50.796Z,989.91
2018-03-18T09:57:50.770Z,989.92
2018-03-18T09:59:43.612Z,989.95
2018-03-18T10:00:43.582Z,989.96
2018-03-18T10:02:36.414Z,989.87
2018-03-18T10:03:36.363Z,989.85
2018-03-18T10:05:29.190Z,989.96
2018-03-18T10:06:29.151Z,989.96
2018-03-18T10:08:21.974Z,989.92
2018-03-18T10:09:21.947Z,989.92
2018-03-18T10:11:14.781Z,989.92
2018-03-18T10:12:14.738Z,989.90
2018-03-18T10:14:07.557Z,989.98
2018-03-18T10:15:07.532Z,990.02
2018-03-18T10:17:00.360Z,990.03
2018-03-18T10:18:00.322Z,990.05
2018-03-18T10:19:53.136Z,990.05
2018-03-18T10:20:53.111Z,990.12
2018-03-18T10:22:45.950Z,990.07
2018-03-18T10:23:45.910Z,990.11
2018-03-18T10:25:38.783Z,990.11
2018-03-18T10:26:38.697Z,990.06
2018-03-18T10:28:31.643Z,990.07
2018-03-18T10:29:31.487Z,990.05
2018-03-18T10:31:24.305Z,990.08
2018-03-18T10:32:24.286Z,990.05
2018-03-18T10:34:17.112Z,990.11
2018-03-18T10:35:17.071Z,990.14
2018-03-18T10:37:09.900Z,990.03
2018-03-18T10:38:09.859Z,990.06
2018-03-18T10:40:02.701Z,990.05
2018-03-18T10:41:02.655Z,990.05
2018-03-18T10:42:55.475Z,990.06
2018-03-18T10:43:55.446Z,989.99
2018-03-18T10:45:48.279Z,990.07
2018-03-18T10:46:48.236Z,990.09
2018-03-18T10:48:41.180Z,990.10
2018-03-18T10:49:41.032Z,990.11
2018-03-18T10:51:33.867Z,990.05
2018-03-18T10:52:33.823Z,990.04
2018-03-18T10:54:26.650Z,990.07
2018-03-18T10:55:26.622Z,989.98
2018-03-18T10:57:19.466Z,990.10
2018-03-18T10:58:19.425Z,990.12
2018-03-18T11:00:12.235Z,990.05
2018-03-18T11:01:12.218Z,990.10
2018-03-18T11:03:05.077Z,990.16
2018-03-18T11:04:05.069Z,990.21
2018-03-18T11:05:57.853Z,990.12
2018-03-18T11:06:57.827Z,990.15
2018-03-18T11:08:50.687Z,990.11
2018-03-18T11:09:50.619Z,990.12
2018-03-18T11:11:43.441Z,990.13
2018-03-18T11:12:43.408Z,990.12
2018-03-18T11:14:36.255Z,990.17
2018-03-18T11:15:36.212Z,990.19
2018-03-18T11:17:29.029Z,990.25
2018-03-18T11:18:29.001Z,990.20
2018-03-18T11:20:21.842Z,990.22
2018-03-18T11:21:21.800Z,990.24
2018-03-18T11:23:14.734Z,990.27
2018-03-18T11:24:14.588Z,990.26
2018-03-18T11:26:07.441Z,990.35
2018-03-18T11:27:07.379Z,990.36
2018-03-18T11:29:00.204Z,990.34
2018-03-18T11:30:00.179Z,990.30
2018-03-18T11:31:53.010Z,990.30
2018-03-18T11:32:52.968Z,990.30
2018-03-18T11:34:45.789Z,990.33
2018-03-18T11:35:45.763Z,990.35
2018-03-18T11:37:38.593Z,990.35
2018-03-18T11:38:38.576Z,990.29
2018-03-18T11:40:31.372Z,990.29
2018-03-18T11:41:31.346Z,990.33
2018-03-18T11:43:24.181Z,990.15
2018-03-18T11:44:24.140Z,990.22
2018-03-18T11:46:16.957Z,990.12
2018-03-18T11:47:16.932Z,990.18
2018-03-18T11:49:09.773Z,990.22
2018-03-18T11:50:09.720Z,990.27
2018-03-18T11:52:02.549Z,990.34
2018-03-18T11:53:02.515Z,990.34
2018-03-18T11:54:55.350Z,990.42
2018-03-18T11:55:55.365Z,990.30
2018-03-18T11:57:48.123Z,990.34
2018-03-18T11:58:48.099Z,990.34
2018-03-18T12:00:40.946Z,990.43
2018-03-18T12:01:40.899Z,990.38
2018-03-18T12:03:33.715Z,990.40
2018-03-18T12:04:33.689Z,990.34
2018-03-18T12:06:26.546Z,990.37
2018-03-18T12:07:26.485Z,990.37
2018-03-18T12:09:19.304Z,990.34
2018-03-18T12:10:19.280Z,990.39
2018-03-18T12:12:12.116Z,990.44
2018-03-18T12:13:12.073Z,990.37
2018-03-18T12:15:04.887Z,990.43
2018-03-18T12:16:04.863Z,990.50
2018-03-18T12:17:57.698Z,990.46
2018-03-18T12:18:57.656Z,990.41
2018-03-18T12:20:50.479Z,990.43
2018-03-18T12:21:50.455Z,990.44
2018-03-18T12:23:43.290Z,990.58
2018-03-18T12:24:43.250Z,990.51
2018-03-18T12:26:36.075Z,990.53
2018-03-18T12:27:36.046Z,990.46
2018-03-18T12:29:28.881Z,990.46
2018-03-18T12:30:28.835Z,990.51
2018-03-18T12:32:21.654Z,990.54
2018-03-18T12:33:21.627Z,990.43
2018-03-18T12:35:14.469Z,990.45
2018-03-18T12:36:14.416Z,990.47
2018-03-18T12:38:07.261Z,990.44
2018-03-18T12:39:07.262Z,990.43
2018-03-18T12:41:00.044Z,990.46
2018-03-18T12:42:00.003Z,990.51
2018-03-18T12:43:52.826Z,990.53
2018-03-18T12:44:52.799Z,990.46
2018-03-18T12:46:45.636Z,990.50
2018-03-18T12:47:45.593Z,990.52
2018-03-18T12:49:38.414Z,990.46
2018-03-18T12:50:38.386Z,990.51
2018-03-18T12:52:31.322Z,990.41
2018-03-18T12:53:31.197Z,990.55
2018-03-18T12:55:24.505Z,990.51
2018-03-18T12:56:24.477Z,990.45
2018-03-18T12:58:17.331Z,990.49
2018-03-18T12:59:17.279Z,990.51
2018-03-18T13:01:10.105Z,990.54
2018-03-18T13:02:10.079Z,990.53
2018-03-18T13:04:02.917Z,990.59
2018-03-18T13:05:02.873Z,990.61
2018-03-18T13:06:55.696Z,990.50
2018-03-18T13:07:55.664Z,990.54
2018-03-18T13:09:48.498Z,990.56
2018-03-18T13:10:48.461Z,990.55
2018-03-18T13:12:41.281Z,990.61
2018-03-18T13:13:41.251Z,990.58
2018-03-18T13:15:34.088Z,990.58
2018-03-18T13:16:34.051Z,990.55
2018-03-18T13:18:26.875Z,990.58
2018-03-18T13:19:26.848Z,990.62
2018-03-18T13:21:19.693Z,990.61
2018-03-18T13:22:19.667Z,990.60
2018-03-18T13:24:12.469Z,990.52
2018-03-18T13:25:12.442Z,990.50
2018-03-18T13:27:05.281Z,990.54
2018-03-18T13:28:05.234Z,990.49
2018-03-18T13:29:58.057Z,990.51
2018-03-18T13:30:58.030Z,990.56
2018-03-18T13:32:50.886Z,990.58
2018-03-18T13:33:50.837Z,990.52
2018-03-18T13:35:43.658Z,990.58
2018-03-18T13:36:43.630Z,990.50
2018-03-18T13:38:36.469Z,990.53
2018-03-18T13:39:36.423Z,990.52
2018-03-18T13:41:29.247Z,990.51
2018-03-18T13:42:29.297Z,990.61
2018-03-18T13:44:22.054Z,990.60
2018-03-18T13:45:22.013Z,990.58
2018-03-18T13:47:14.833Z,990.56
2018-03-18T13:48:14.806Z,990.61
2018-03-18T13:50:07.648Z,990.56
2018-03-18T13:51:07.604Z,990.62
2018-03-18T13:53:00.421Z,990.60
2018-03-18T13:54:00.416Z,990.66
2018-03-18T13:55:53.229Z,990.69
2018-03-18T13:56:53.191Z,990.67
2018-03-18T13:58:46.006Z,990.66
2018-03-18T13:59:45.986Z,990.63
2018-03-18T14:01:38.818Z,990.65
2018-03-18T14:02:38.772Z,990.61
2018-03-18T14:04:31.607Z,990.64
2018-03-18T14:05:31.612Z,990.62
2018-03-18T14:07:24.407Z,990.59
2018-03-18T14:08:24.360Z,990.64
2018-03-18T14:10:17.201Z,990.69
2018-03-18T14:11:17.155Z,990.78
2018-03-18T14:13:09.991Z,990.76
2018-03-18T14:14:09.959Z,990.80
2018-03-18T14:16:02.766Z,990.82
2018-03-18T14:17:02.744Z,990.89
2018-03-18T14:18:55.575Z,990.77
2018-03-18T14:19:55.534Z,990.82
2018-03-18T14:21:48.372Z,990.76
2018-03-18T14:22:48.325Z,990.81
2018-03-18T14:24:41.171Z,990.89
2018-03-18T14:25:41.127Z,990.92
2018-03-18T14:27:33.947Z,990.94
2018-03-18T14:28:33.917Z,990.87
2018-03-18T14:30:26.779Z,990.92
2018-03-18T14:31:26.748Z,990.92
2018-03-18T14:33:19.574Z,991.00
2018-03-18T14:34:19.546Z,990.97
2018-03-18T14:36:12.407Z,990.94
2018-03-18T14:37:12.363Z,991.04
2018-03-18T14:39:05.189Z,990.98
2018-03-18T14:40:05.164Z,991.00
2018-03-18T14:41:58.001Z,990.98
2018-03-18T14:42:57.955Z,990.94
2018-03-18T14:44:50.798Z,990.99
2018-03-18T14:45:50.779Z,990.92
2018-03-18T14:47:43.602Z,991.00
2018-03-18T14:48:43.562Z,991.01
2018-03-18T14:50:36.383Z,990.94
2018-03-18T14:51:36.357Z,991.02
2018-03-18T14:53:29.202Z,990.97
2018-03-18T14:54:29.155Z,990.96
2018-03-18T14:56:21.982Z,991.11
2018-03-18T14:57:21.948Z,991.05
2018-03-18T14:59:14.788Z,991.09
2018-03-18T15:00:14.795Z,991.05
2018-03-18T15:02:07.563Z,991.04
2018-03-18T15:03:07.541Z,991.01
2018-03-18T15:05:00.888Z,991.13
2018-03-18T15:06:00.844Z,991.08
2018-03-18T15:07:53.666Z,991.08
2018-03-18T15:08:53.657Z,991.09
2018-03-18T15:10:46.489Z,991.13
2018-03-18T15:11:46.492Z,991.17
2018-03-18T15:13:39.756Z,991.18
2018-03-18T15:14:39.760Z,991.26
2018-03-18T15:16:32.567Z,991.25
2018-03-18T15:17:32.521Z,991.31
2018-03-18T15:19:25.362Z,991.30
2018-03-18T15:20:25.309Z,991.29
2018-03-18T15:22:18.142Z,991.42
2018-03-18T15:23:18.101Z,991.38
2018-03-18T15:25:10.918Z,991.38
2018-03-18T15:26:10.892Z,991.43
2018-03-18T15:28:03.734Z,991.47
2018-03-18T15:29:03.682Z,991.44
2018-03-18T15:30:56.509Z,991.45
2018-03-18T15:31:56.485Z,991.55
2018-03-18T15:33:49.322Z,991.49
2018-03-18T15:34:49.280Z,991.49
2018-03-18T15:36:42.097Z,991.58
2018-03-18T15:37:42.073Z,991.59
2018-03-18T15:39:34.904Z,991.56
2018-03-18T15:40:34.861Z,991.60
2018-03-18T15:42:27.680Z,991.62
2018-03-18T15:43:27.654Z,991.62
2018-03-18T15:45:20.495Z,991.59
2018-03-18T15:46:20.486Z,991.58
2018-03-18T15:48:13.271Z,991.61
2018-03-18T15:49:13.248Z,991.68
2018-03-18T15:51:06.077Z,991.68
2018-03-18T15:52:06.036Z,991.72
2018-03-18T15:53:58.857Z,991.72
2018-03-18T15:54:58.832Z,991.71
2018-03-18T15:56:51.663Z,991.71
2018-03-18T15:57:51.623Z,991.76
2018-03-18T15:59:44.471Z,991.72
2018-03-18T16:00:44.412Z,991.73
2018-03-18T16:02:37.276Z,991.74
2018-03-18T16:03:37.235Z,991.79
2018-03-18T16:05:30.052Z,991.74
2018-03-18T16:06:30.020Z,991.80
2018-03-18T16:08:22.856Z,991.76
2018-03-18T16:09:22.815Z,991.79
2018-03-18T16:11:15.642Z,991.80
2018-03-18T16:12:15.612Z,991.84
2018-03-18T16:14:08.446Z,991.83
2018-03-18T16:15:08.408Z,991.83
2018-03-18T16:17:01.232Z,991.87
2018-03-18T16:18:01.205Z,991.91
2018-03-18T16:19:54.039Z,991.90
2018-03-18T16:20:54.000Z,991.97
2018-03-18T16:22:46.820Z,991.95
2018-03-18T16:23:46.796Z,991.98
2018-03-18T16:25:39.626Z,991.96
2018-03-18T16:26:39.594Z,991.97
2018-03-18T16:28:32.401Z,992.03
2018-03-18T16:29:32.375Z,992.03
2018-03-18T16:31:25.220Z,992.10
2018-03-18T16:32:25.185Z,992.10
2018-03-18T16:34:18.059Z,992.08
2018-03-18T16:35:18.035Z,992.11
2018-03-18T16:37:10.862Z,992.10
2018-03-18T16:38:10.820Z,992.17
2018-03-18T16:40:03.641Z,992.14
2018-03-18T16:41:03.614Z,992.19
2018-03-18T16:42:56.462Z,992.20
2018-03-18T16:43:56.401Z,992.21
2018-03-18T16:45:49.231Z,992.18
2018-03-18T16:46:49.218Z,992.24
2018-03-18T16:48:42.043Z,992.26
2018-03-18T16:49:42.006Z,992.25
2018-03-18T16:51:34.818Z,992.28
2018-03-18T16:52:34.791Z,992.27
2018-03-18T16:54:27.645Z,992.34
2018-03-18T16:55:27.593Z,992.29
2018-03-18T16:57:20.404Z,992.41
2018-03-18T16:58:20.377Z,992.41
2018-03-18T17:00:13.220Z,992.43
2018-03-18T17:01:13.182Z,992.45
2018-03-18T17:03:06.022Z,992.43
2018-03-18T17:04:05.979Z,992.49
2018-03-18T17:05:58.826Z,992.48
2018-03-18T17:06:58.778Z,992.50
2018-03-18T17:08:51.594Z,992.50
2018-03-18T17:09:51.561Z,992.54
2018-03-18T17:11:44.406Z,992.56
2018-03-18T17:12:44.357Z,992.59
2018-03-18T17:14:37.224Z,992.59
2018-03-18T17:15:37.156Z,992.64
2018-03-18T17:17:30.089Z,992.65
2018-03-18T17:18:30.049Z,992.65
2018-03-18T17:20:22.865Z,992.69
2018-03-18T17:21:22.844Z,992.66
2018-03-18T17:23:16.280Z,992.69
2018-03-18T17:24:15.638Z,992.64
2018-03-18T17:26:08.468Z,992.66
2018-03-18T17:27:08.445Z,992.71
2018-03-18T17:29:01.270Z,992.78
2018-03-18T17:30:01.228Z,992.80
2018-03-18T17:31:54.042Z,992.89
2018-03-18T17:34:10.491Z,992.89
2018-03-18T17:35:06.828Z,992.84
2018-03-18T17:36:59.685Z,992.89
2018-03-18T17:37:59.624Z,992.98
2018-03-18T17:39:52.454Z,992.95
2018-03-18T17:40:52.413Z,992.88
2018-03-18T17:42:45.236Z,993.00
2018-03-18T17:43:45.288Z,992.98
2018-03-18T17:45:38.039Z,993.00
2018-03-18T17:46:38.004Z,993.06
2018-03-18T17:48:30.828Z,993.04
2018-03-18T17:49:30.802Z,993.01
2018-03-18T17:51:23.632Z,993.04
2018-03-18T17:52:23.595Z,993.02
2018-03-18T17:54:16.420Z,993.03
2018-03-18T17:55:16.391Z,993.07
2018-03-18T17:57:09.230Z,993.05
2018-03-18T17:58:09.186Z,993.02